sensor_id;sensor_type;location;lat;lon;timestamp;temperature;humidity
2054;DHT22;1032;52.542;13.440;2023-01-15T00:01:20;10.10;99.90
2054;DHT22;1032;52.542;13.440;2023-01-15T00:03:46;10.10;99.90
2054;DHT22;1032;52.542;13.440;2023-01-15T00:06:14;10.20;99.90
2054;DHT22;1032;52.542;13.440;2023-01-15T00:08:41;9.80;99.90
2054;DHT22;1032;52.542;13.440;2023-01-15T00:11:08;10.00;99.90
2054;DHT22;1032;52.542;13.440;2023-01-15T00:13:34;10.00;99.90
2054;DHT22;1032;52.542;13.440;2023-01-15T00:16:02;10.40;99.90
2054;DHT22;1032;52.542;13.440;2023-01-15T00:18:29;10.10;99.90
2054;DHT22;1032;52.542;13.440;2023-01-15T00:20:58;10.10;99.90
2054;DHT22;1032;52.542;13.440;2023-01-15T00:23:26;10.20;99.90
2054;DHT22;1032;52.542;13.440;2023-01-15T00:26:14;10.30;99.90
2054;DHT22;1032;52.542;13.440;2023-01-15T00:28:58;9.70;99.90
2054;DHT22;1032;52.542;13.440;2023-01-15T00:31:25;10.30;99.90
2054;DHT22;1032;52.542;13.440;2023-01-15T00:33:52;10.30;99.90
2054;DHT22;1032;52.542;13.440;2023-01-15T00:36:18;10.20;99.90
2054;DHT22;1032;52.542;13.440;2023-01-15T00:38:46;9.90;99.90
2054;DHT22;1032;52.542;13.440;2023-01-15T00:41:13;10.10;99.90
2054;DHT22;1032;52.542;13.440;2023-01-15T00:43:39;9.70;99.90
2054;DHT22;1032;52.542;13.440;2023-01-15T00:46:06;10.10;99.90
2054;DHT22;1032;52.542;13.440;2023-01-15T00:48:33;10.00;99.90
2054;DHT22;1032;52.542;13.440;2023-01-15T00:51:00;10.10;99.90
2054;DHT22;1032;52.542;13.440;2023-01-15T00:53:26;10.20;99.90
2054;DHT22;1032;52.542;13.440;2023-01-15T00:55:54;10.20;99.90
2054;DHT22;1032;52.542;13.440;2023-01-15T00:58:21;10.20;99.90
2054;DHT22;1032;52.542;13.440;2023-01-15T01:00:52;10.60;99.90
2054;DHT22;1032;52.542;13.440;2023-01-15T01:03:18;10.20;99.90
2054;DHT22;1032;52.542;13.440;2023-01-15T01:05:45;9.90;99.90
2054;DHT22;1032;52.542;13.440;2023-01-15T01:08:13;10.00;99.90
2054;DHT22;1032;52.542;13.440;2023-01-15T01:10:39;10.60;99.90
2054;DHT22;1032;52.542;13.440;2023-01-15T01:13:07;10.60;99.90
2054;DHT22;1032;52.542;13.440;2023-01-15T01:15:34;10.30;99.90
2054;DHT22;1032;52.542;13.440;2023-01-15T01:18:01;10.50;99.90
2054;DHT22;1032;52.542;13.440;2023-01-15T01:20:29;10.30;99.90
2054;DHT22;1032;52.542;13.440;2023-01-15T01:22:56;10.10;99.90
2054;DHT22;1032;52.542;13.440;2023-01-15T01:25:23;10.10;99.90
2054;DHT22;1032;52.542;13.440;2023-01-15T01:27:49;9.70;99.90
2054;DHT22;1032;52.542;13.440;2023-01-15T01:30:21;10.30;99.90
2054;DHT22;1032;52.542;13.440;2023-01-15T01:32:48;10.30;99.90
2054;DHT22;1032;52.542;13.440;2023-01-15T01:35:14;10.60;99.90
2054;DHT22;1032;52.542;13.440;2023-01-15T01:37:41;10.30;99.90
2054;DHT22;1032;52.542;13.440;2023-01-15T01:40:08;10.40;99.90
2054;DHT22;1032;52.542;13.440;2023-01-15T01:42:36;10.40;99.90
2054;DHT22;1032;52.542;13.440;2023-01-15T01:45:08;10.30;99.90
2054;DHT22;1032;52.542;13.440;2023-01-15T01:47:39;10.40;99.90
2054;DHT22;1032;52.542;13.440;2023-01-15T01:50:08;10.40;99.90
2054;DHT22;1032;52.542;13.440;2023-01-15T01:52:41;10.40;99.90
2054;DHT22;1032;52.542;13.440;2023-01-15T01:55:11;10.60;99.90
2054;DHT22;1032;52.542;13.440;2023-01-15T01:57:39;9.80;99.90
2054;DHT22;1032;52.542;13.440;2023-01-15T02:00:07;10.30;99.90
2054;DHT22;1032;52.542;13.440;2023-01-15T02:02:46;10.40;99.90
2054;DHT22;1032;52.542;13.440;2023-01-15T02:05:15;10.40;99.90
2054;DHT22;1032;52.542;13.440;2023-01-15T02:07:43;10.40;99.90
2054;DHT22;1032;52.542;13.440;2023-01-15T02:10:14;10.60;99.90
2054;DHT22;1032;52.542;13.440;2023-01-15T02:12:45;10.30;99.90
2054;DHT22;1032;52.542;13.440;2023-01-15T02:15:18;10.30;99.90
2054;DHT22;1032;52.542;13.440;2023-01-15T02:17:54;10.30;99.90
2054;DHT22;1032;52.542;13.440;2023-01-15T02:20:29;10.60;99.90
2054;DHT22;1032;52.542;13.440;2023-01-15T02:28:53;10.40;99.90
2054;DHT22;1032;52.542;13.440;2023-01-15T02:31:25;10.50;99.90
2054;DHT22;1032;52.542;13.440;2023-01-15T02:33:57;10.30;99.90
2054;DHT22;1032;52.542;13.440;2023-01-15T02:36:29;10.40;99.90
2054;DHT22;1032;52.542;13.440;2023-01-15T02:39:02;10.50;99.90
2054;DHT22;1032;52.542;13.440;2023-01-15T02:41:32;10.60;99.90
2054;DHT22;1032;52.542;13.440;2023-01-15T02:44:05;10.40;99.90
2054;DHT22;1032;52.542;13.440;2023-01-15T02:46:35;10.40;99.90
2054;DHT22;1032;52.542;13.440;2023-01-15T02:49:08;10.10;99.90
2054;DHT22;1032;52.542;13.440;2023-01-15T02:51:40;10.50;99.90
2054;DHT22;1032;52.542;13.440;2023-01-15T02:54:13;10.20;99.90
2054;DHT22;1032;52.542;13.440;2023-01-15T02:56:43;10.40;99.90
2054;DHT22;1032;52.542;13.440;2023-01-15T02:59:17;10.40;99.90
2054;DHT22;1032;52.542;13.440;2023-01-15T03:01:48;9.90;99.90
2054;DHT22;1032;52.542;13.440;2023-01-15T03:04:21;10.60;99.90
2054;DHT22;1032;52.542;13.440;2023-01-15T03:06:51;10.40;99.90
2054;DHT22;1032;52.542;13.440;2023-01-15T03:09:21;10.30;99.90
2054;DHT22;1032;52.542;13.440;2023-01-15T03:11:58;10.10;99.90
2054;DHT22;1032;52.542;13.440;2023-01-15T03:14:31;10.30;99.90
2054;DHT22;1032;52.542;13.440;2023-01-15T03:17:04;9.80;99.90
2054;DHT22;1032;52.542;13.440;2023-01-15T03:19:39;10.40;99.90
2054;DHT22;1032;52.542;13.440;2023-01-15T03:22:17;10.30;99.90
2054;DHT22;1032;52.542;13.440;2023-01-15T03:24:47;10.70;99.90
2054;DHT22;1032;52.542;13.440;2023-01-15T03:27:17;10.40;99.90
2054;DHT22;1032;52.542;13.440;2023-01-15T03:29:52;10.20;99.90
2054;DHT22;1032;52.542;13.440;2023-01-15T03:32:20;10.50;99.90
2054;DHT22;1032;52.542;13.440;2023-01-15T03:34:50;10.50;99.90
2054;DHT22;1032;52.542;13.440;2023-01-15T03:37:18;10.30;99.90
2054;DHT22;1032;52.542;13.440;2023-01-15T03:39:46;10.60;99.90
2054;DHT22;1032;52.542;13.440;2023-01-15T03:42:32;10.20;99.90
2054;DHT22;1032;52.542;13.440;2023-01-15T03:45:05;10.30;99.90
2054;DHT22;1032;52.542;13.440;2023-01-15T03:47:44;9.80;99.90
2054;DHT22;1032;52.542;13.440;2023-01-15T03:50:17;10.60;99.90
2054;DHT22;1032;52.542;13.440;2023-01-15T03:52:48;10.90;99.90
2054;DHT22;1032;52.542;13.440;2023-01-15T03:55:21;10.40;99.90
2054;DHT22;1032;52.542;13.440;2023-01-15T03:57:59;10.60;99.90
2054;DHT22;1032;52.542;13.440;2023-01-15T04:00:35;10.30;99.90
2054;DHT22;1032;52.542;13.440;2023-01-15T04:03:06;10.60;99.90
2054;DHT22;1032;52.542;13.440;2023-01-15T04:05:36;10.80;99.90
2054;DHT22;1032;52.542;13.440;2023-01-15T04:08:05;10.60;99.90
2054;DHT22;1032;52.542;13.440;2023-01-15T04:10:34;10.50;99.90
2054;DHT22;1032;52.542;13.440;2023-01-15T04:13:03;10.40;99.90
2054;DHT22;1032;52.542;13.440;2023-01-15T04:15:31;10.50;99.90
2054;DHT22;1032;52.542;13.440;2023-01-15T04:17:58;10.40;99.90
2054;DHT22;1032;52.542;13.440;2023-01-15T04:20:27;10.30;99.90
2054;DHT22;1032;52.542;13.440;2023-01-15T04:22:54;10.10;99.90
2054;DHT22;1032;52.542;13.440;2023-01-15T04:25:20;9.40;99.90
2054;DHT22;1032;52.542;13.440;2023-01-15T04:27:48;10.00;99.90
2054;DHT22;1032;52.542;13.440;2023-01-15T04:30:15;10.20;99.90
2054;DHT22;1032;52.542;13.440;2023-01-15T04:32:47;9.90;99.90
2054;DHT22;1032;52.542;13.440;2023-01-15T04:35:14;9.10;99.90
2054;DHT22;1032;52.542;13.440;2023-01-15T04:37:41;9.80;99.90
2054;DHT22;1032;52.542;13.440;2023-01-15T04:40:08;9.50;99.90
2054;DHT22;1032;52.542;13.440;2023-01-15T04:42:55;9.50;99.90
2054;DHT22;1032;52.542;13.440;2023-01-15T04:45:39;9.30;99.90
2054;DHT22;1032;52.542;13.440;2023-01-15T04:48:07;9.30;99.90
2054;DHT22;1032;52.542;13.440;2023-01-15T04:50:34;8.90;99.90
2054;DHT22;1032;52.542;13.440;2023-01-15T04:53:00;8.70;99.90
2054;DHT22;1032;52.542;13.440;2023-01-15T04:55:28;8.80;99.90
2054;DHT22;1032;52.542;13.440;2023-01-15T04:57:55;8.90;99.90
2054;DHT22;1032;52.542;13.440;2023-01-15T05:00:22;8.80;99.90
2054;DHT22;1032;52.542;13.440;2023-01-15T05:02:49;8.80;99.90
2054;DHT22;1032;52.542;13.440;2023-01-15T05:05:17;8.80;99.90
2054;DHT22;1032;52.542;13.440;2023-01-15T05:07:43;8.70;99.90
2054;DHT22;1032;52.542;13.440;2023-01-15T05:10:10;8.00;99.90
2054;DHT22;1032;52.542;13.440;2023-01-15T05:12:37;8.70;99.90
2054;DHT22;1032;52.542;13.440;2023-01-15T05:15:04;8.70;99.90
2054;DHT22;1032;52.542;13.440;2023-01-15T05:17:31;8.80;99.90
2054;DHT22;1032;52.542;13.440;2023-01-15T05:19:58;8.60;99.90
2054;DHT22;1032;52.542;13.440;2023-01-15T05:22:26;8.80;99.90
2054;DHT22;1032;52.542;13.440;2023-01-15T05:24:52;8.90;99.90
2054;DHT22;1032;52.542;13.440;2023-01-15T05:27:19;9.20;99.90
2054;DHT22;1032;52.542;13.440;2023-01-15T05:29:45;8.70;99.90
2054;DHT22;1032;52.542;13.440;2023-01-15T05:32:12;8.30;99.90
2054;DHT22;1032;52.542;13.440;2023-01-15T05:34:39;8.50;99.90
2054;DHT22;1032;52.542;13.440;2023-01-15T05:37:06;8.50;99.90
2054;DHT22;1032;52.542;13.440;2023-01-15T05:39:34;8.80;99.90
2054;DHT22;1032;52.542;13.440;2023-01-15T05:42:01;8.50;99.90
2054;DHT22;1032;52.542;13.440;2023-01-15T05:44:28;8.80;99.90
2054;DHT22;1032;52.542;13.440;2023-01-15T05:46:57;8.60;99.90
2054;DHT22;1032;52.542;13.440;2023-01-15T05:49:26;8.60;99.90
2054;DHT22;1032;52.542;13.440;2023-01-15T05:51:53;8.60;99.90
2054;DHT22;1032;52.542;13.440;2023-01-15T05:54:22;8.70;99.90
2054;DHT22;1032;52.542;13.440;2023-01-15T05:56:50;8.50;99.90
2054;DHT22;1032;52.542;13.440;2023-01-15T05:59:19;8.80;99.90
2054;DHT22;1032;52.542;13.440;2023-01-15T06:01:46;8.90;99.90
2054;DHT22;1032;52.542;13.440;2023-01-15T06:04:14;8.80;99.90
2054;DHT22;1032;52.542;13.440;2023-01-15T06:06:42;8.70;99.90
2054;DHT22;1032;52.542;13.440;2023-01-15T06:09:09;8.10;99.90
2054;DHT22;1032;52.542;13.440;2023-01-15T06:11:36;8.80;99.90
2054;DHT22;1032;52.542;13.440;2023-01-15T06:14:04;8.80;99.90
2054;DHT22;1032;52.542;13.440;2023-01-15T06:16:30;8.70;99.90
2054;DHT22;1032;52.542;13.440;2023-01-15T06:18:59;8.70;99.90
2054;DHT22;1032;52.542;13.440;2023-01-15T06:21:28;8.20;99.90
2054;DHT22;1032;52.542;13.440;2023-01-15T06:23:55;8.80;99.90
2054;DHT22;1032;52.542;13.440;2023-01-15T06:26:22;8.90;99.90
2054;DHT22;1032;52.542;13.440;2023-01-15T06:28:49;8.60;99.90
2054;DHT22;1032;52.542;13.440;2023-01-15T06:31:18;8.70;99.90
2054;DHT22;1032;52.542;13.440;2023-01-15T06:33:45;8.70;99.90
2054;DHT22;1032;52.542;13.440;2023-01-15T06:36:14;8.80;99.90
2054;DHT22;1032;52.542;13.440;2023-01-15T06:38:42;8.80;99.90
2054;DHT22;1032;52.542;13.440;2023-01-15T06:41:12;8.90;99.90
2054;DHT22;1032;52.542;13.440;2023-01-15T06:43:52;8.90;99.90
2054;DHT22;1032;52.542;13.440;2023-01-15T06:46:39;8.70;99.90
2054;DHT22;1032;52.542;13.440;2023-01-15T06:49:26;8.60;99.90
2054;DHT22;1032;52.542;13.440;2023-01-15T06:51:52;9.00;99.90
2054;DHT22;1032;52.542;13.440;2023-01-15T06:54:19;8.50;99.90
2054;DHT22;1032;52.542;13.440;2023-01-15T06:56:45;8.50;99.90
2054;DHT22;1032;52.542;13.440;2023-01-15T06:59:12;8.60;99.90
2054;DHT22;1032;52.542;13.440;2023-01-15T07:01:40;8.40;99.90
2054;DHT22;1032;52.542;13.440;2023-01-15T07:04:07;9.00;99.90
2054;DHT22;1032;52.542;13.440;2023-01-15T07:06:33;8.50;99.90
2054;DHT22;1032;52.542;13.440;2023-01-15T07:09:00;8.70;99.90
2054;DHT22;1032;52.542;13.440;2023-01-15T07:11:26;8.70;99.90
2054;DHT22;1032;52.542;13.440;2023-01-15T07:13:53;8.50;99.90
2054;DHT22;1032;52.542;13.440;2023-01-15T07:16:30;8.10;99.90
2054;DHT22;1032;52.542;13.440;2023-01-15T07:18:58;8.60;99.90
2054;DHT22;1032;52.542;13.440;2023-01-15T07:21:25;8.70;99.90
2054;DHT22;1032;52.542;13.440;2023-01-15T07:23:52;8.70;99.90
2054;DHT22;1032;52.542;13.440;2023-01-15T07:26:18;7.90;99.90
2054;DHT22;1032;52.542;13.440;2023-01-15T07:28:45;8.30;99.90
2054;DHT22;1032;52.542;13.440;2023-01-15T07:31:12;8.60;99.90
2054;DHT22;1032;52.542;13.440;2023-01-15T07:33:38;8.20;99.90
2054;DHT22;1032;52.542;13.440;2023-01-15T07:36:07;8.60;99.90
2054;DHT22;1032;52.542;13.440;2023-01-15T07:38:33;8.70;99.90
2054;DHT22;1032;52.542;13.440;2023-01-15T07:41:00;8.60;99.90
2054;DHT22;1032;52.542;13.440;2023-01-15T07:43:45;8.50;99.90
2054;DHT22;1032;52.542;13.440;2023-01-15T07:46:29;7.80;99.90
2054;DHT22;1032;52.542;13.440;2023-01-15T07:49:13;8.40;99.90
2054;DHT22;1032;52.542;13.440;2023-01-15T07:51:59;8.40;99.90
2054;DHT22;1032;52.542;13.440;2023-01-15T07:54:26;8.70;99.90
2054;DHT22;1032;52.542;13.440;2023-01-15T07:56:54;8.50;99.90
2054;DHT22;1032;52.542;13.440;2023-01-15T07:59:22;8.30;99.90
2054;DHT22;1032;52.542;13.440;2023-01-15T08:01:49;8.40;99.90
2054;DHT22;1032;52.542;13.440;2023-01-15T08:04:16;8.60;99.90
2054;DHT22;1032;52.542;13.440;2023-01-15T08:06:43;8.30;99.90
2054;DHT22;1032;52.542;13.440;2023-01-15T08:09:11;8.20;99.90
2054;DHT22;1032;52.542;13.440;2023-01-15T08:11:37;8.60;99.90
2054;DHT22;1032;52.542;13.440;2023-01-15T08:14:21;8.20;99.90
2054;DHT22;1032;52.542;13.440;2023-01-15T08:17:06;8.30;99.90
2054;DHT22;1032;52.542;13.440;2023-01-15T08:19:32;8.40;99.90
2054;DHT22;1032;52.542;13.440;2023-01-15T08:21:59;8.20;99.90
2054;DHT22;1032;52.542;13.440;2023-01-15T08:24:28;8.20;99.90
2054;DHT22;1032;52.542;13.440;2023-01-15T08:26:54;8.20;99.90
2054;DHT22;1032;52.542;13.440;2023-01-15T08:29:21;8.40;99.90
2054;DHT22;1032;52.542;13.440;2023-01-15T08:31:48;8.50;99.90
2054;DHT22;1032;52.542;13.440;2023-01-15T08:34:14;8.30;99.90
2054;DHT22;1032;52.542;13.440;2023-01-15T08:36:41;8.60;99.90
2054;DHT22;1032;52.542;13.440;2023-01-15T08:39:08;7.90;99.90
2054;DHT22;1032;52.542;13.440;2023-01-15T08:41:36;8.30;99.90
2054;DHT22;1032;52.542;13.440;2023-01-15T08:44:03;8.60;99.90
2054;DHT22;1032;52.542;13.440;2023-01-15T08:46:30;8.50;99.90
2054;DHT22;1032;52.542;13.440;2023-01-15T08:48:56;8.50;99.90
2054;DHT22;1032;52.542;13.440;2023-01-15T08:51:23;8.50;99.90
2054;DHT22;1032;52.542;13.440;2023-01-15T08:53:49;8.60;99.90
2054;DHT22;1032;52.542;13.440;2023-01-15T08:56:18;8.10;99.90
2054;DHT22;1032;52.542;13.440;2023-01-15T08:58:46;8.70;99.90
2054;DHT22;1032;52.542;13.440;2023-01-15T09:01:13;8.30;99.90
2054;DHT22;1032;52.542;13.440;2023-01-15T09:03:40;8.40;99.90
2054;DHT22;1032;52.542;13.440;2023-01-15T09:06:08;8.80;99.90
2054;DHT22;1032;52.542;13.440;2023-01-15T09:08:35;8.60;99.90
2054;DHT22;1032;52.542;13.440;2023-01-15T09:11:04;8.50;99.90
2054;DHT22;1032;52.542;13.440;2023-01-15T09:13:32;8.70;99.90
2054;DHT22;1032;52.542;13.440;2023-01-15T09:16:00;8.70;99.90
2054;DHT22;1032;52.542;13.440;2023-01-15T09:18:28;8.50;99.90
2054;DHT22;1032;52.542;13.440;2023-01-15T09:20:54;8.50;99.90
2054;DHT22;1032;52.542;13.440;2023-01-15T09:23:21;8.40;99.90
2054;DHT22;1032;52.542;13.440;2023-01-15T09:25:51;8.60;99.90
2054;DHT22;1032;52.542;13.440;2023-01-15T09:28:18;8.50;99.90
2054;DHT22;1032;52.542;13.440;2023-01-15T09:30:44;8.90;99.90
2054;DHT22;1032;52.542;13.440;2023-01-15T09:33:12;8.70;99.90
2054;DHT22;1032;52.542;13.440;2023-01-15T09:35:39;8.80;99.90
2054;DHT22;1032;52.542;13.440;2023-01-15T09:38:06;9.20;99.90
2054;DHT22;1032;52.542;13.440;2023-01-15T09:40:47;8.60;99.90
2054;DHT22;1032;52.542;13.440;2023-01-15T09:43:26;8.70;99.90
2054;DHT22;1032;52.542;13.440;2023-01-15T09:45:58;8.60;99.90
2054;DHT22;1032;52.542;13.440;2023-01-15T09:48:39;8.60;99.90
2054;DHT22;1032;52.542;13.440;2023-01-15T09:51:17;8.70;99.90
2054;DHT22;1032;52.542;13.440;2023-01-15T09:54:10;8.40;99.90
2054;DHT22;1032;52.542;13.440;2023-01-15T09:56:40;8.60;99.90
2054;DHT22;1032;52.542;13.440;2023-01-15T09:59:18;8.80;99.90
2054;DHT22;1032;52.542;13.440;2023-01-15T10:01:47;8.90;99.90
2054;DHT22;1032;52.542;13.440;2023-01-15T10:04:27;9.00;99.90
2054;DHT22;1032;52.542;13.440;2023-01-15T10:06:59;9.00;99.90
2054;DHT22;1032;52.542;13.440;2023-01-15T10:09:32;8.30;99.90
2054;DHT22;1032;52.542;13.440;2023-01-15T10:12:08;9.20;99.90
2054;DHT22;1032;52.542;13.440;2023-01-15T10:15:02;9.10;99.90
2054;DHT22;1032;52.542;13.440;2023-01-15T10:17:36;8.80;99.90
2054;DHT22;1032;52.542;13.440;2023-01-15T10:20:12;9.30;99.90
2054;DHT22;1032;52.542;13.440;2023-01-15T10:23:00;9.00;99.90
2054;DHT22;1032;52.542;13.440;2023-01-15T10:25:36;8.40;99.90
2054;DHT22;1032;52.542;13.440;2023-01-15T10:28:14;9.40;99.90
2054;DHT22;1032;52.542;13.440;2023-01-15T10:30:46;9.10;99.90
2054;DHT22;1032;52.542;13.440;2023-01-15T10:33:26;8.90;99.90
2054;DHT22;1032;52.542;13.440;2023-01-15T10:35:59;9.10;99.90
2054;DHT22;1032;52.542;13.440;2023-01-15T10:38:33;9.30;99.90
2054;DHT22;1032;52.542;13.440;2023-01-15T10:41:25;9.20;99.90
2054;DHT22;1032;52.542;13.440;2023-01-15T10:43:59;9.30;99.90
2054;DHT22;1032;52.542;13.440;2023-01-15T10:46:29;9.80;99.90
2054;DHT22;1032;52.542;13.440;2023-01-15T10:49:01;9.30;99.90
2054;DHT22;1032;52.542;13.440;2023-01-15T10:51:40;9.60;99.90
2054;DHT22;1032;52.542;13.440;2023-01-15T10:54:15;8.90;99.90
2054;DHT22;1032;52.542;13.440;2023-01-15T10:56:46;9.80;99.90
2054;DHT22;1032;52.542;13.440;2023-01-15T10:59:18;9.20;99.90
2054;DHT22;1032;52.542;13.440;2023-01-15T11:01:51;9.50;99.90
2054;DHT22;1032;52.542;13.440;2023-01-15T11:04:19;9.70;99.90
2054;DHT22;1032;52.542;13.440;2023-01-15T11:06:47;9.50;99.90
2054;DHT22;1032;52.542;13.440;2023-01-15T11:09:19;9.90;99.90
2054;DHT22;1032;52.542;13.440;2023-01-15T11:11:49;10.20;99.90
2054;DHT22;1032;52.542;13.440;2023-01-15T11:14:36;9.70;99.90
2054;DHT22;1032;52.542;13.440;2023-01-15T11:17:21;9.40;99.90
2054;DHT22;1032;52.542;13.440;2023-01-15T11:20:14;9.70;99.90
2054;DHT22;1032;52.542;13.440;2023-01-15T11:22:44;9.90;99.90
2054;DHT22;1032;52.542;13.440;2023-01-15T11:25:11;9.70;99.90
2054;DHT22;1032;52.542;13.440;2023-01-15T11:27:38;9.70;99.90
2054;DHT22;1032;52.542;13.440;2023-01-15T11:30:06;9.80;99.90
2054;DHT22;1032;52.542;13.440;2023-01-15T11:32:54;9.70;99.90
2054;DHT22;1032;52.542;13.440;2023-01-15T11:35:22;10.10;99.90
2054;DHT22;1032;52.542;13.440;2023-01-15T11:38:01;9.90;99.90
2054;DHT22;1032;52.542;13.440;2023-01-15T11:40:27;9.90;99.90
2054;DHT22;1032;52.542;13.440;2023-01-15T11:42:54;9.70;99.90
2054;DHT22;1032;52.542;13.440;2023-01-15T11:45:47;9.60;99.90
2054;DHT22;1032;52.542;13.440;2023-01-15T11:48:41;9.60;99.90
2054;DHT22;1032;52.542;13.440;2023-01-15T11:51:27;9.60;99.90
2054;DHT22;1032;52.542;13.440;2023-01-15T11:53:59;9.50;99.90
2054;DHT22;1032;52.542;13.440;2023-01-15T11:56:29;9.90;99.90
2054;DHT22;1032;52.542;13.440;2023-01-15T11:58:57;10.10;99.90
2054;DHT22;1032;52.542;13.440;2023-01-15T12:01:29;9.80;99.90
2054;DHT22;1032;52.542;13.440;2023-01-15T12:03:58;9.70;99.90
2054;DHT22;1032;52.542;13.440;2023-01-15T12:06:26;9.70;99.90
2054;DHT22;1032;52.542;13.440;2023-01-15T12:08:57;9.80;99.90
2054;DHT22;1032;52.542;13.440;2023-01-15T12:11:38;10.00;99.90
2054;DHT22;1032;52.542;13.440;2023-01-15T12:14:35;9.50;99.90
2054;DHT22;1032;52.542;13.440;2023-01-15T12:17:11;9.40;99.90
2054;DHT22;1032;52.542;13.440;2023-01-15T12:19:45;9.40;99.90
2054;DHT22;1032;52.542;13.440;2023-01-15T12:22:25;9.00;99.90
2054;DHT22;1032;52.542;13.440;2023-01-15T12:25:09;9.50;99.90
2054;DHT22;1032;52.542;13.440;2023-01-15T12:28:01;9.70;99.90
2054;DHT22;1032;52.542;13.440;2023-01-15T12:30:36;9.60;99.90
2054;DHT22;1032;52.542;13.440;2023-01-15T12:33:14;9.90;99.90
2054;DHT22;1032;52.542;13.440;2023-01-15T12:35:46;9.60;99.90
2054;DHT22;1032;52.542;13.440;2023-01-15T12:38:19;9.80;99.90
2054;DHT22;1032;52.542;13.440;2023-01-15T12:40:50;9.70;99.90
2054;DHT22;1032;52.542;13.440;2023-01-15T12:43:22;9.60;99.90
2054;DHT22;1032;52.542;13.440;2023-01-15T12:46:13;9.40;99.90
2054;DHT22;1032;52.542;13.440;2023-01-15T12:48:45;9.50;99.90
2054;DHT22;1032;52.542;13.440;2023-01-15T12:51:22;9.50;99.90
2054;DHT22;1032;52.542;13.440;2023-01-15T12:53:55;9.60;99.90
2054;DHT22;1032;52.542;13.440;2023-01-15T12:56:27;9.00;99.90
2054;DHT22;1032;52.542;13.440;2023-01-15T12:58:57;9.90;99.90
2054;DHT22;1032;52.542;13.440;2023-01-15T13:01:30;9.60;99.90
2054;DHT22;1032;52.542;13.440;2023-01-15T13:04:10;9.30;99.90
2054;DHT22;1032;52.542;13.440;2023-01-15T13:06:41;9.50;99.90
2054;DHT22;1032;52.542;13.440;2023-01-15T13:09:17;9.00;99.90
2054;DHT22;1032;52.542;13.440;2023-01-15T13:11:46;9.50;99.90
2054;DHT22;1032;52.542;13.440;2023-01-15T13:14:15;9.50;99.90
2054;DHT22;1032;52.542;13.440;2023-01-15T13:16:48;9.70;99.90
2054;DHT22;1032;52.542;13.440;2023-01-15T13:19:31;9.80;99.90
2054;DHT22;1032;52.542;13.440;2023-01-15T13:22:04;9.50;99.90
2054;DHT22;1032;52.542;13.440;2023-01-15T13:25:10;9.30;99.90
2054;DHT22;1032;52.542;13.440;2023-01-15T13:27:56;9.60;99.90
2054;DHT22;1032;52.542;13.440;2023-01-15T13:30:36;9.80;99.90
2054;DHT22;1032;52.542;13.440;2023-01-15T13:33:16;9.20;99.90
2054;DHT22;1032;52.542;13.440;2023-01-15T13:35:48;9.20;99.90
2054;DHT22;1032;52.542;13.440;2023-01-15T13:38:18;9.10;99.90
2054;DHT22;1032;52.542;13.440;2023-01-15T13:40:47;8.80;99.90
2054;DHT22;1032;52.542;13.440;2023-01-15T13:43:28;9.10;99.90
2054;DHT22;1032;52.542;13.440;2023-01-15T13:45:57;8.80;99.90
2054;DHT22;1032;52.542;13.440;2023-01-15T13:48:29;9.20;99.90
2054;DHT22;1032;52.542;13.440;2023-01-15T13:50:57;9.00;99.90
2054;DHT22;1032;52.542;13.440;2023-01-15T13:53:26;8.90;99.90
2054;DHT22;1032;52.542;13.440;2023-01-15T13:55:55;8.70;99.90
2054;DHT22;1032;52.542;13.440;2023-01-15T13:58:26;8.70;99.90
2054;DHT22;1032;52.542;13.440;2023-01-15T14:01:04;8.70;99.90
2054;DHT22;1032;52.542;13.440;2023-01-15T14:03:32;8.70;99.90
2054;DHT22;1032;52.542;13.440;2023-01-15T14:06:01;8.80;99.90
2054;DHT22;1032;52.542;13.440;2023-01-15T14:08:36;8.80;99.90
2054;DHT22;1032;52.542;13.440;2023-01-15T14:11:03;8.70;99.90
2054;DHT22;1032;52.542;13.440;2023-01-15T14:13:53;8.70;99.90
2054;DHT22;1032;52.542;13.440;2023-01-15T14:16:42;8.80;99.90
2054;DHT22;1032;52.542;13.440;2023-01-15T14:19:52;8.80;99.90
2054;DHT22;1032;52.542;13.440;2023-01-15T14:22:35;8.70;99.90
2054;DHT22;1032;52.542;13.440;2023-01-15T14:25:19;8.60;99.90
2054;DHT22;1032;52.542;13.440;2023-01-15T14:27:56;8.50;99.90
2054;DHT22;1032;52.542;13.440;2023-01-15T14:31:01;8.90;99.90
2054;DHT22;1032;52.542;13.440;2023-01-15T14:33:33;8.70;99.90
2054;DHT22;1032;52.542;13.440;2023-01-15T14:36:08;9.30;99.90
2054;DHT22;1032;52.542;13.440;2023-01-15T14:38:36;8.80;99.90
2054;DHT22;1032;52.542;13.440;2023-01-15T14:41:05;8.80;99.90
2054;DHT22;1032;52.542;13.440;2023-01-15T14:43:34;8.80;99.90
2054;DHT22;1032;52.542;13.440;2023-01-15T14:46:12;8.90;99.90
2054;DHT22;1032;52.542;13.440;2023-01-15T14:48:40;8.50;99.90
2054;DHT22;1032;52.542;13.440;2023-01-15T14:51:09;8.60;99.90
2054;DHT22;1032;52.542;13.440;2023-01-15T14:53:40;8.90;99.90
2054;DHT22;1032;52.542;13.440;2023-01-15T14:56:17;8.90;99.90
2054;DHT22;1032;52.542;13.440;2023-01-15T14:58:49;8.60;99.90
2054;DHT22;1032;52.542;13.440;2023-01-15T15:01:26;8.70;99.90
2054;DHT22;1032;52.542;13.440;2023-01-15T15:03:56;8.70;99.90
2054;DHT22;1032;52.542;13.440;2023-01-15T15:06:25;8.90;99.90
2054;DHT22;1032;52.542;13.440;2023-01-15T15:08:55;8.80;99.90
2054;DHT22;1032;52.542;13.440;2023-01-15T15:11:32;9.10;99.90
2054;DHT22;1032;52.542;13.440;2023-01-15T15:14:19;8.80;99.90
2054;DHT22;1032;52.542;13.440;2023-01-15T15:16:49;8.90;99.90
2054;DHT22;1032;52.542;13.440;2023-01-15T15:19:25;8.50;99.90
2054;DHT22;1032;52.542;13.440;2023-01-15T15:21:56;8.60;99.90
2054;DHT22;1032;52.542;13.440;2023-01-15T15:24:26;8.20;99.90
2054;DHT22;1032;52.542;13.440;2023-01-15T15:26:54;8.30;99.90
2054;DHT22;1032;52.542;13.440;2023-01-15T15:29:21;8.20;99.90
2054;DHT22;1032;52.542;13.440;2023-01-15T15:31:51;7.70;99.90
2054;DHT22;1032;52.542;13.440;2023-01-15T15:34:24;8.30;99.90
2054;DHT22;1032;52.542;13.440;2023-01-15T15:36:52;7.90;99.90
2054;DHT22;1032;52.542;13.440;2023-01-15T15:39:24;8.20;99.90
2054;DHT22;1032;52.542;13.440;2023-01-15T15:41:53;8.10;99.90
2054;DHT22;1032;52.542;13.440;2023-01-15T15:44:43;8.00;99.90
2054;DHT22;1032;52.542;13.440;2023-01-15T15:47:37;8.20;99.90
2054;DHT22;1032;52.542;13.440;2023-01-15T15:50:22;8.00;99.90
2054;DHT22;1032;52.542;13.440;2023-01-15T15:52:49;8.10;99.90
2054;DHT22;1032;52.542;13.440;2023-01-15T15:55:17;7.90;99.90
2054;DHT22;1032;52.542;13.440;2023-01-15T15:57:47;7.80;99.90
2054;DHT22;1032;52.542;13.440;2023-01-15T16:00:17;7.20;99.90
2054;DHT22;1032;52.542;13.440;2023-01-15T16:02:46;7.90;99.90
2054;DHT22;1032;52.542;13.440;2023-01-15T16:05:21;7.30;99.90
2054;DHT22;1032;52.542;13.440;2023-01-15T16:07:49;7.80;99.90
2054;DHT22;1032;52.542;13.440;2023-01-15T16:10:19;7.90;99.90
2054;DHT22;1032;52.542;13.440;2023-01-15T16:12:49;7.20;99.90
2054;DHT22;1032;52.542;13.440;2023-01-15T16:15:19;7.60;99.90
2054;DHT22;1032;52.542;13.440;2023-01-15T16:17:47;7.40;99.90
2054;DHT22;1032;52.542;13.440;2023-01-15T16:20:16;7.60;99.90
2054;DHT22;1032;52.542;13.440;2023-01-15T16:22:44;7.50;99.90
2054;DHT22;1032;52.542;13.440;2023-01-15T16:25:21;7.50;99.90
2054;DHT22;1032;52.542;13.440;2023-01-15T16:27:48;7.30;99.90
2054;DHT22;1032;52.542;13.440;2023-01-15T16:30:15;7.30;99.90
2054;DHT22;1032;52.542;13.440;2023-01-15T16:32:43;7.20;99.90